Huvudsida
METAR-TAF:

METAR-TAF

Flygplatser :

Beirut Air Base

Beirut, Libanon

latitud: 33-49N, longitud: 035-29E, höjd: 29 m

Aktuellt väderrapport

Denna rapport gjordes för 24 minuter sedan, klockan 00:00 UTC
Vind 5 kt från ost/sydost
Temperatur 18°C
Fuktighet 24%
Tryck 1022 hPa
Sikt 10 km eller mer
Inga moln under 1 500 m eller inga cumulonimbus

METAR: OLBA 190000Z 12005KT CAVOK 18/M03 Q1022 NOSIG

Tid: 02:24 (00:24 UTC)

Väderprognos

Denna rapport gjordes för 2 timmar och 24 minuter sedan, klockan 22:00 UTC
Prognos gäller från 19 kl. 00 UTC till 20 kl. 06 UTC
Vind 4 kt från ost/sydost
Sikt 10 km eller mer
Inga moln under 1 500 m eller inga cumulonimbus
Blir
från 19 kl. 06 UTC till 19 kl. 09 UTC
Vind 10 kt från nord/nordväst
Blir
från 19 kl. 18 UTC till 19 kl. 20 UTC
Vind 4 kt från ost

TAF: OLBA 182200Z 1900/2006 12004KT CAVOK BECMG 1906/1909 34010KT BECMG 1918/1920 10004KT

Aktuella väderrapporter och prognoser från 4000 flygplatser (METAR- och TAF-rapporter).

De tillgängliga stationerna syns som gula och röda prickar på kartan.

För musen över prickarna för att se namnen på stationerna.

Klicka sedan för att få väderrapporter och prognoser.

För att ändra kartan: Klicka på de gröna knapparna med ett svart kors på för att zooma in; den gröna knappen med ett streck på för att zooma ut; eller på de gröna pilarna för angränsande kartor.


METAR-TAF: